Time;durP1;ratioP1;P1;durP2;ratioP2;P2;SDS_P1;SDS_P2;PMS_P1;PMS_P2;Temp;Humidity;BMP_temperature;BMP_pressure;BME280_temperature;BME280_humidity;BME280_pressure;Samples;Min_cycle;Max_cycle;Signal;HPM_P1;HPM_P2
2021/11/02 00:00:17;;;;;;;122.50;60.60;;;;;;;8.92;66.59;97338.19;460462;1193;108489;-41
2021/11/02 00:10:44;;;;;;;112.80;59.60;;;;;;;8.98;66.60;97324.02;460317;1193;99024;-41
2021/11/02 00:30:58;;;;;;;114.10;60.40;;;;;;;9.04;66.98;97303.50;459450;1194;99025;-41
2021/11/02 00:41:05;;;;;;;115.20;60.60;;;;;;;9.02;66.99;97297.89;460323;1193;112212;-41
2021/11/02 00:51:13;;;;;;;116.20;60.20;;;;;;;8.95;67.15;97304.73;460098;1195;108418;-40
2021/11/02 01:01:20;;;;;;;101.80;49.80;;;;;;;9.01;67.27;97289.55;460242;1193;98621;-42
2021/11/02 01:11:28;;;;;;;89.30;47.90;;;;;;;9.13;67.19;97283.31;459925;1193;108538;-41
2021/11/02 01:21:35;;;;;;;113.60;56.10;;;;;;;9.24;67.27;97285.09;459519;1196;99053;-44
2021/11/02 01:31:43;;;;;;;105.20;54.60;;;;;;;9.22;67.33;97271.19;460332;1194;112494;-42
2021/11/02 01:41:50;;;;;;;107.00;53.50;;;;;;;9.16;67.31;97258.43;460261;1195;108696;-42
2021/11/02 01:51:58;;;;;;;101.10;53.70;;;;;;;9.09;67.33;97253.12;460054;1193;99041;-42
2021/11/02 02:02:06;;;;;;;100.30;52.30;;;;;;;9.06;67.51;97244.34;459946;1193;112380;-42
2021/11/02 02:12:19;;;;;;;89.40;47.00;;;;;;;9.15;67.44;97240.33;460456;1188;108543;-42
2021/11/02 02:22:32;;;;;;;95.30;47.60;;;;;;;9.21;67.60;97243.33;459541;1193;99069;-41
2021/11/02 02:32:40;;;;;;;107.30;55.80;;;;;;;9.07;67.93;97229.79;459863;1193;108551;-40
2021/11/02 02:42:49;;;;;;;97.20;52.70;;;;;;;8.92;68.46;97212.70;459978;1193;99040;-40
2021/11/02 02:53:00;;;;;;;95.50;48.60;;;;;;;8.95;68.67;97204.82;459306;1198;112220;-41
2021/11/02 03:03:10;;;;;;;78.80;41.90;;;;;;;9.05;68.81;97200.84;459633;1195;108428;-41
2021/11/02 03:13:19;;;;;;;75.20;40.70;;;;;;;9.16;68.91;97200.14;460076;1193;98611;-43
2021/11/02 03:54:47;;;;;;;55.40;31.10;;;;;;;9.26;70.23;97185.66;459886;1194;108525;-41
2021/11/02 05:59:35;;;;;;;53.00;33.80;;;;;;;9.17;72.27;97132.16;460053;1196;108537;-40
2021/11/02 06:30:22;;;;;;;62.30;31.90;;;;;;;9.36;72.63;97138.05;460626;1193;108599;-41
2021/11/02 08:56:02;;;;;;;54.10;35.00;;;;;;;9.55;75.19;97164.58;460465;1194;111700;-41
2021/11/02 09:06:13;;;;;;;67.90;39.70;;;;;;;9.58;75.33;97158.67;460507;1193;108731;-41
2021/11/02 09:16:18;;;;;;;;;;;;;;;9.60;75.61;97163.64;460690;1194;98609;-41
2021/11/02 09:26:43;;;;;;;57.60;33.90;;;;;;;9.62;75.73;97166.02;460245;1193;108803;-40
2021/11/02 09:36:54;;;;;;;54.60;32.30;;;;;;;9.70;76.01;97160.35;460481;1197;99052;-42
2021/11/02 09:57:34;;;;;;;48.30;29.40;;;;;;;9.89;76.30;97153.48;460402;1194;108985;-41
2021/11/02 10:08:24;;;;;;;46.00;27.10;;;;;;;9.94;76.39;97152.80;460230;1196;97697;-45
2021/11/02 10:29:24;;;;;;;43.90;27.30;;;;;;;9.90;76.75;97138.42;460246;1193;99048;-40
2021/11/02 10:39:48;;;;;;;46.50;27.70;;;;;;;9.89;77.01;97134.99;460166;1193;112609;-41
2021/11/02 10:50:13;;;;;;;42.00;25.20;;;;;;;9.92;77.03;97129.92;459689;1195;108596;-41
2021/11/02 11:00:20;;;;;;;37.80;22.50;;;;;;;9.92;77.42;97127.20;460147;1193;98337;-42
2021/11/02 11:10:30;;;;;;;38.40;24.00;;;;;;;9.89;77.78;97123.27;460385;1193;107548;-41
2021/11/02 11:20:40;;;;;;;37.50;22.20;;;;;;;9.92;77.94;97117.78;460193;1194;97735;-43
2021/11/02 11:30:48;;;;;;;31.70;22.00;;;;;;;9.93;77.99;97108.40;460058;1193;112148;-41
2021/11/02 11:40:58;;;;;;;35.20;25.00;;;;;;;9.98;78.25;97110.31;460017;1194;108484;-40
2021/11/02 11:51:07;;;;;;;37.20;23.60;;;;;;;10.13;78.20;97106.77;460161;1193;99319;-41
2021/11/02 12:11:47;;;;;;;37.60;23.80;;;;;;;10.25;78.13;97123.98;460370;1193;97760;-40
2021/11/02 12:22:07;;;;;;;27.30;19.00;;;;;;;10.18;77.87;97129.50;460193;1193;111141;-41
2021/11/02 12:32:23;;;;;;;23.60;16.90;;;;;;;10.04;77.71;97127.90;459937;1193;108089;-41
2021/11/02 12:42:34;;;;;;;30.50;17.70;;;;;;;9.88;77.50;97123.73;460185;1193;97689;-40
2021/11/02 12:52:42;;;;;;;18.20;13.40;;;;;;;9.90;77.39;97125.86;460313;1193;108380;-41
2021/11/02 13:03:02;;;;;;;22.30;14.60;;;;;;;9.93;77.24;97131.52;459437;1196;97754;-40
2021/11/02 13:13:09;;;;;;;23.60;15.70;;;;;;;9.81;77.18;97129.06;460314;1193;112065;-41
2021/11/02 13:23:18;;;;;;;30.50;20.20;;;;;;;9.72;77.14;97129.42;460473;1195;108506;-44
2021/11/02 13:43:29;;;;;;;28.30;19.10;;;;;;;9.40;77.17;97132.05;460301;1193;107494;-40
2021/11/02 13:53:36;;;;;;;25.70;17.40;;;;;;;9.31;77.40;97132.98;460187;1194;99433;-40
2021/11/02 14:03:59;;;;;;;30.40;17.60;;;;;;;9.37;77.47;97130.20;460489;1193;112413;-41
2021/11/02 14:14:08;;;;;;;27.10;17.10;;;;;;;9.40;77.53;97131.80;459603;1194;107862;-41
2021/11/02 14:24:15;;;;;;;25.30;18.30;;;;;;;9.53;77.75;97131.42;460008;1193;99028;-40
2021/11/02 14:44:55;;;;;;;32.90;21.20;;;;;;;9.45;77.36;97149.28;459478;1195;99163;-40
2021/11/02 14:55:02;;;;;;;33.40;22.60;;;;;;;9.22;77.28;97145.28;459972;1193;112130;-40
2021/11/02 15:05:12;;;;;;;19.70;13.30;;;;;;;9.07;77.31;97153.49;459409;1196;108651;-40
2021/11/02 15:15:20;;;;;;;25.50;17.80;;;;;;;8.98;77.37;97149.05;459897;1195;98615;-40
2021/11/02 15:25:46;;;;;;;33.40;21.10;;;;;;;8.99;77.40;97159.52;459984;1194;107935;-40
2021/11/02 15:35:53;;;;;;;27.60;18.10;;;;;;;8.87;77.49;97166.98;459859;1193;99178;-41
2021/11/02 15:45:59;;;;;;;33.70;22.10;;;;;;;8.75;77.52;97163.98;459857;1194;111933;-41
2021/11/02 15:56:07;;;;;;;31.70;20.60;;;;;;;8.63;77.59;97169.97;460115;1179;108598;-41
2021/11/02 16:16:40;;;;;;;36.90;23.10;;;;;;;8.77;77.79;97176.55;459934;1194;107870;-41
2021/11/02 16:26:47;;;;;;;50.80;27.00;;;;;;;8.85;77.73;97193.06;459810;1195;98621;-41
2021/11/02 16:47:09;;;;;;;63.20;38.90;;;;;;;8.77;77.85;97207.48;459788;1193;108616;-41
2021/11/02 16:57:25;;;;;;;75.10;42.40;;;;;;;8.68;77.84;97215.05;460049;1193;98003;-41
2021/11/02 17:07:36;;;;;;;49.70;32.50;;;;;;;8.64;77.79;97222.98;459842;1195;108482;-41
2021/11/02 17:17:45;;;;;;;46.40;24.70;;;;;;;8.74;77.92;97231.02;459651;1195;99048;-41
2021/11/02 17:27:52;;;;;;;47.50;25.20;;;;;;;8.78;77.86;97230.38;459939;1195;112134;-43
2021/11/02 17:38:18;;;;;;;58.60;35.60;;;;;;;8.71;77.98;97240.17;459781;1193;108796;-41
2021/11/02 17:48:24;;;;;;;57.80;37.40;;;;;;;8.56;78.06;97243.37;459535;1195;99025;-41
2021/11/02 17:58:33;;;;;;;43.30;27.60;;;;;;;8.41;77.90;97250.40;460030;1194;111388;-40
2021/11/02 18:08:43;;;;;;;29.80;20.80;;;;;;;8.32;78.07;97259.72;459147;1196;108507;-41
2021/11/02 18:18:51;;;;;;;55.20;36.50;;;;;;;8.36;78.06;97251.98;459928;1195;98101;-41
2021/11/02 18:28:55;;;;;;;62.80;44.80;;;;;;;8.40;78.22;97253.86;459732;1193;108672;-41
2021/11/02 18:39:03;;;;;;;60.90;42.70;;;;;;;8.42;78.15;97260.19;459680;1194;99028;-40
2021/11/02 18:49:10;;;;;;;62.30;37.50;;;;;;;8.29;78.39;97270.48;459882;1180;112155;-40
2021/11/02 18:59:17;;;;;;;66.80;36.50;;;;;;;8.22;78.38;97274.60;459670;1194;108790;-41
2021/11/02 19:09:29;;;;;;;49.50;29.60;;;;;;;8.23;78.37;97275.40;459467;1194;99171;-41
2021/11/02 19:19:37;;;;;;;34.30;19.10;;;;;;;8.33;78.63;97280.75;459726;1193;112107;-42
2021/11/02 19:29:44;;;;;;;68.40;31.60;;;;;;;8.57;78.68;97285.90;459297;1194;108400;-41
2021/11/02 19:39:51;;;;;;;51.70;27.80;;;;;;;8.64;78.48;97295.02;459926;1195;99057;-40
2021/11/02 19:49:59;;;;;;;59.00;31.60;;;;;;;8.45;78.43;97302.05;459131;1194;109038;-45
2021/11/02 20:00:07;;;;;;;34.00;20.70;;;;;;;8.40;78.43;97304.95;459699;1195;98612;-41
2021/11/02 20:10:17;;;;;;;35.40;22.80;;;;;;;8.38;78.40;97315.00;459956;1195;112247;-41
2021/11/02 20:20:24;;;;;;;41.30;26.40;;;;;;;8.47;78.35;97320.98;460167;1193;107461;-41
2021/11/02 20:30:32;;;;;;;43.00;28.00;;;;;;;8.47;78.46;97342.97;459528;1195;99061;-40
2021/11/02 20:50:44;;;;;;;51.20;30.90;;;;;;;8.39;78.45;97350.56;459794;1194;99024;-41
2021/11/02 21:00:49;;;;;;;;;;;;;;;8.27;78.45;97345.13;459639;1195;110025;-41
2021/11/02 21:21:12;;;;;;;38.30;25.40;;;;;;;8.24;78.48;97360.46;459546;1187;99031;-41
2021/11/02 21:31:21;;;;;;;42.40;24.10;;;;;;;8.23;78.49;97353.92;459573;1194;108409;-42
2021/11/02 21:41:28;;;;;;;47.30;27.30;;;;;;;8.15;78.46;97359.48;459732;1195;98759;-42
2021/11/02 21:51:39;;;;;;;48.80;30.10;;;;;;;7.98;78.71;97364.62;460054;1194;112259;-40
2021/11/02 22:01:46;;;;;;;44.90;27.30;;;;;;;7.99;78.71;97365.31;459600;1195;108495;-40
2021/11/02 22:11:54;;;;;;;38.90;25.90;;;;;;;7.93;78.62;97371.77;459906;1193;97828;-41
2021/11/02 22:22:00;;;;;;;44.80;26.30;;;;;;;8.05;78.98;97369.71;459469;1195;108082;-40
2021/11/02 22:32:10;;;;;;;44.70;28.00;;;;;;;8.14;78.71;97383.00;460071;1193;99082;-41
2021/11/02 22:42:19;;;;;;;61.90;34.40;;;;;;;8.06;78.78;97384.86;460026;1195;112245;-42
2021/11/02 22:52:28;;;;;;;59.10;33.60;;;;;;;7.95;78.78;97395.80;459782;1194;108520;-40
2021/11/02 23:02:34;;;;;;;53.20;30.50;;;;;;;7.83;78.73;97402.33;460015;1193;99046;-41
2021/11/02 23:12:42;;;;;;;46.70;28.60;;;;;;;7.81;78.80;97403.40;459531;1193;112158;-41
2021/11/02 23:22:50;;;;;;;56.20;28.90;;;;;;;7.95;78.88;97403.59;460079;1193;108519;-40
2021/11/02 23:32:59;;;;;;;43.20;24.30;;;;;;;8.06;79.03;97416.82;459707;1193;98125;-41
2021/11/02 23:43:06;;;;;;;56.10;29.30;;;;;;;8.16;79.03;97425.52;459930;1193;108589;-41
2021/11/02 23:53:15;;;;;;;45.70;26.50;;;;;;;8.03;78.84;97422.77;459426;1195;98618;-39
